Sunday, September 23, 2018, 4:31 AM GMT
Back to Local

CXHF, High Falls , Que.

Location: , , Canada Lat: 45.833
Local Time: 4:31 AM GMT ( 4:31 GMT) Lon: -75.65
Time Zone: GMT Elev: 623 ft

Show me the last for .
Show Coded

Time T Td Feel RH Dir Speed Gust Alt SLP Vis Weather Sky Remarks
2018-09-23 04:00 41 41 - 98 - - - - - 0 None
2018-09-23 03:00 42 42 - 99 - - - - - 0 None
2018-09-23 02:00 43 43 - 99 - - - - - 0 None
2018-09-23 01:00 44 43 - 94 - - - - - 0 None
2018-09-23 00:00 46 42 - 87 - - - - - 0 None
2018-09-22 23:00 49 42 - 75 - - - - - 0 None
2018-09-22 22:00 53 43 - 68 - - - - - 0 None
2018-09-22 21:00 55 43 - 62 - - - - - 0 None
2018-09-22 20:00 57 41 - 56 - - - - - 0 None
2018-09-22 19:00 56 39 - 51 - - - - - 0 None
2018-09-22 18:00 56 41 - 57 - - - - - 0 None
2018-09-22 17:00 53 39 - 59 - - - - - 0 None
2018-09-22 16:00 52 40 - 62 - - - - - 0 None
2018-09-22 15:00 50 39 - 66 - - - - - 0 None
2018-09-22 14:00 49 41 - 73 - - - - - 0 None
2018-09-22 13:00 46 39 - 76 - - - - - 0 None
2018-09-22 12:00 47 38 - 71 - - - - - 0 None
2018-09-22 11:00 47 41 - 79 - - - - - 0 None
2018-09-22 07:00 51 46 - 82 - - - - - 0 None
2018-09-22 06:00 56 48 - 75 - - - - - 0 None
2018-09-22 05:00 59 46 - 61 - - - - - 0 None

Support USWX by starting your Amazon purchase here.